Time,TemperatureF,DewpointF,PressureIn,WindDirection,WindDirectionDegrees,WindSpeedMPH,WindSpeedGustMPH,Humidity,HourlyPrecipIn,Conditions,Clouds,dailyrainin,SoftwareType,DateUTC
2013-03-09 00:01:00,26.4,22.8,30.19,North,358,0.0,0.0,86,0.00,,,0.00,Wunderground v.1.15,2013-03-09 05:01:00,
2013-03-09 00:02:00,26.4,22.8,30.19,North,358,0.0,0.0,86,0.00,,,0.00,Wunderground v.1.15,2013-03-09 05:02:00,
2013-03-09 00:04:00,26.4,22.8,30.19,North,358,0.0,0.0,86,0.00,,,0.00,Wunderground v.1.15,2013-03-09 05:04:00,
2013-03-09 00:09:00,26.4,23.1,30.19,North,358,0.0,0.0,87,0.00,,,0.00,Wunderground v.1.15,2013-03-09 05:09:00,
2013-03-09 00:15:00,26.3,23.0,30.19,North,358,0.0,0.0,87,0.00,,,0.00,Wunderground v.1.15,2013-03-09 05:15:00,
2013-03-09 00:17:00,26.1,22.8,30.19,North,358,0.0,0.0,87,0.00,,,0.00,Wunderground v.1.15,2013-03-09 05:17:00,
2013-03-09 00:24:00,26.1,22.8,30.19,North,358,0.0,0.0,87,0.00,,,0.00,Wunderground v.1.15,2013-03-09 05:24:00,
2013-03-09 00:29:00,26.0,22.7,30.19,North,358,0.0,0.0,87,0.00,,,0.00,Wunderground v.1.15,2013-03-09 05:29:00,
2013-03-09 00:34:00,26.0,22.9,30.19,North,358,0.0,0.0,88,0.00,,,0.00,Wunderground v.1.15,2013-03-09 05:34:00,
2013-03-09 00:39:00,25.8,22.7,30.19,North,358,0.0,0.0,88,0.00,,,0.00,Wunderground v.1.15,2013-03-09 05:39:00,
2013-03-09 00:45:00,25.8,22.7,30.20,North,358,0.0,0.0,88,0.00,,,0.00,Wunderground v.1.15,2013-03-09 05:45:00,
2013-03-09 00:52:00,26.0,22.9,30.20,North,358,0.0,0.0,88,0.00,,,0.00,Wunderground v.1.15,2013-03-09 05:52:00,
2013-03-09 00:57:00,26.0,22.9,30.20,North,358,0.0,0.0,88,0.00,,,0.00,Wunderground v.1.15,2013-03-09 05:57:00,
2013-03-09 01:02:00,26.1,23.0,30.20,North,358,0.0,0.0,88,0.00,,,0.00,Wunderground v.1.15,2013-03-09 06:02:00,
2013-03-09 01:07:00,26.1,23.0,30.20,North,358,0.0,0.0,88,0.00,,,0.00,Wunderground v.1.15,2013-03-09 06:07:00,
2013-03-09 01:14:00,26.3,23.2,30.20,North,358,0.0,0.0,88,0.00,,,0.00,Wunderground v.1.15,2013-03-09 06:14:00,
2013-03-09 01:19:00,26.3,23.0,30.20,North,358,0.0,0.0,87,0.00,,,0.00,Wunderground v.1.15,2013-03-09 06:19:00,
2013-03-09 01:24:00,26.4,23.1,30.20,North,358,0.0,0.0,87,0.00,,,0.00,Wunderground v.1.15,2013-03-09 06:24:00,
2013-03-09 01:30:00,26.4,22.8,30.20,North,358,0.0,0.0,86,0.00,,,0.00,Wunderground v.1.15,2013-03-09 06:30:00,
2013-03-09 01:37:00,26.3,22.7,30.20,North,358,0.0,0.0,86,0.00,,,0.00,Wunderground v.1.15,2013-03-09 06:37:00,
2013-03-09 01:42:00,26.1,22.2,30.19,North,358,0.0,0.0,85,0.00,,,0.00,Wunderground v.1.15,2013-03-09 06:42:00,
2013-03-09 01:47:00,26.0,22.1,30.19,North,358,0.0,0.0,85,0.00,,,0.00,Wunderground v.1.15,2013-03-09 06:47:00,
2013-03-09 01:53:00,25.8,21.9,30.19,North,358,0.0,0.0,85,0.00,,,0.00,Wunderground v.1.15,2013-03-09 06:53:00,
2013-03-09 01:59:00,25.7,22.1,30.19,North,358,0.0,0.0,86,0.00,,,0.00,Wunderground v.1.15,2013-03-09 06:59:00,
2013-03-09 02:04:00,25.6,22.0,30.19,North,358,0.0,0.0,86,0.00,,,0.00,Wunderground v.1.15,2013-03-09 07:04:00,
2013-03-09 02:09:00,25.4,21.8,30.19,North,358,0.0,0.0,86,0.00,,,0.00,Wunderground v.1.15,2013-03-09 07:09:00,
2013-03-09 02:14:00,25.3,22.0,30.19,North,358,0.0,0.0,87,0.00,,,0.00,Wunderground v.1.15,2013-03-09 07:14:00,
2013-03-09 02:19:00,25.1,21.8,30.19,North,358,0.0,0.0,87,0.00,,,0.00,Wunderground v.1.15,2013-03-09 07:19:00,
2013-03-09 02:24:00,25.0,21.7,30.19,North,358,0.0,0.0,87,0.00,,,0.00,Wunderground v.1.15,2013-03-09 07:24:00,
2013-03-09 02:29:00,24.8,21.5,30.19,North,358,0.0,0.0,87,0.00,,,0.00,Wunderground v.1.15,2013-03-09 07:29:00,
2013-03-09 02:34:00,24.7,21.4,30.19,North,358,0.0,0.0,87,0.00,,,0.00,Wunderground v.1.15,2013-03-09 07:34:00,
2013-03-09 02:39:00,24.7,21.7,30.19,North,358,0.0,1.0,88,0.00,,,0.00,Wunderground v.1.15,2013-03-09 07:39:00,
2013-03-09 02:44:00,24.5,21.5,30.18,North,358,0.0,1.0,88,0.00,,,0.00,Wunderground v.1.15,2013-03-09 07:44:00,
2013-03-09 02:49:00,24.5,21.5,30.18,North,358,0.0,1.0,88,0.00,,,0.00,Wunderground v.1.15,2013-03-09 07:49:00,
2013-03-09 02:55:00,24.4,21.4,30.18,North,358,0.0,1.0,88,0.00,,,0.00,Wunderground v.1.15,2013-03-09 07:55:00,
2013-03-09 03:00:00,24.4,21.4,30.18,North,358,0.0,0.0,88,0.00,,,0.00,Wunderground v.1.15,2013-03-09 08:00:00,
2013-03-09 03:05:00,24.5,21.5,30.18,North,358,0.0,0.0,88,0.00,,,0.00,Wunderground v.1.15,2013-03-09 08:05:00,
2013-03-09 03:10:00,24.4,21.4,30.18,North,358,0.0,0.0,88,0.00,,,0.00,Wunderground v.1.15,2013-03-09 08:10:00,
2013-03-09 03:15:00,24.4,21.1,30.18,North,358,0.0,0.0,87,0.00,,,0.00,Wunderground v.1.15,2013-03-09 08:15:00,
2013-03-09 03:20:00,24.2,20.6,30.18,North,358,0.0,0.0,86,0.00,,,0.00,Wunderground v.1.15,2013-03-09 08:20:00,
2013-03-09 03:26:00,23.9,20.0,30.18,North,358,0.0,0.0,85,0.00,,,0.00,Wunderground v.1.15,2013-03-09 08:26:00,
2013-03-09 03:31:00,23.5,19.7,30.18,North,358,0.0,0.0,85,0.00,,,0.00,Wunderground v.1.15,2013-03-09 08:31:00,
2013-03-09 03:36:00,23.3,19.5,30.18,North,358,0.0,0.0,85,0.00,,,0.00,Wunderground v.1.15,2013-03-09 08:36:00,
2013-03-09 03:41:00,23.2,19.6,30.18,North,358,0.0,0.0,86,0.00,,,0.00,Wunderground v.1.15,2013-03-09 08:41:00,
2013-03-09 03:46:00,23.0,19.4,30.19,North,358,0.0,0.0,86,0.00,,,0.00,Wunderground v.1.15,2013-03-09 08:46:00,
2013-03-09 03:51:00,22.9,19.6,30.19,North,358,0.0,0.0,87,0.00,,,0.00,Wunderground v.1.15,2013-03-09 08:51:00,
2013-03-09 03:56:00,22.7,19.4,30.18,North,358,0.0,0.0,87,0.00,,,0.00,Wunderground v.1.15,2013-03-09 08:56:00,
2013-03-09 04:02:00,22.5,19.2,30.18,North,358,0.0,0.0,87,0.00,,,0.00,Wunderground v.1.15,2013-03-09 09:02:00,
2013-03-09 04:07:00,22.4,19.1,30.18,North,358,0.0,0.0,87,0.00,,,0.00,Wunderground v.1.15,2013-03-09 09:07:00,
2013-03-09 04:12:00,22.2,18.9,30.19,North,358,0.0,0.0,87,0.00,,,0.00,Wunderground v.1.15,2013-03-09 09:12:00,
2013-03-09 04:17:00,22.1,18.8,30.19,North,358,0.0,0.0,87,0.00,,,0.00,Wunderground v.1.15,2013-03-09 09:17:00,
2013-03-09 04:22:00,21.9,18.4,30.19,North,358,0.0,0.0,86,0.00,,,0.00,Wunderground v.1.15,2013-03-09 09:22:00,
2013-03-09 04:27:00,21.8,18.3,30.20,North,358,0.0,0.0,86,0.00,,,0.00,Wunderground v.1.15,2013-03-09 09:27:00,
2013-03-09 04:33:00,21.6,18.3,30.20,North,358,0.0,0.0,87,0.00,,,0.00,Wunderground v.1.15,2013-03-09 09:33:00,
2013-03-09 04:38:00,21.4,18.1,30.20,North,358,0.0,0.0,87,0.00,,,0.00,Wunderground v.1.15,2013-03-09 09:38:00,
2013-03-09 04:43:00,21.3,18.0,30.20,North,358,0.0,0.0,87,0.00,,,0.00,Wunderground v.1.15,2013-03-09 09:43:00,
2013-03-09 04:48:00,21.1,17.8,30.20,North,358,0.0,0.0,87,0.00,,,0.00,Wunderground v.1.15,2013-03-09 09:48:00,
2013-03-09 04:53:00,21.0,17.7,30.20,North,358,0.0,0.0,87,0.00,,,0.00,Wunderground v.1.15,2013-03-09 09:53:00,
2013-03-09 04:58:00,20.8,17.8,30.21,North,358,0.0,0.0,88,0.00,,,0.00,Wunderground v.1.15,2013-03-09 09:58:00,
2013-03-09 05:03:00,20.6,17.6,30.21,North,358,0.0,0.0,88,0.00,,,0.00,Wunderground v.1.15,2013-03-09 10:03:00,
2013-03-09 05:08:00,20.6,17.6,30.21,North,358,0.0,0.0,88,0.00,,,0.00,Wunderground v.1.15,2013-03-09 10:08:00,
2013-03-09 05:13:00,20.5,17.5,30.22,North,358,0.0,0.0,88,0.00,,,0.00,Wunderground v.1.15,2013-03-09 10:13:00,
2013-03-09 05:19:00,20.3,17.3,30.22,North,358,0.0,0.0,88,0.00,,,0.00,Wunderground v.1.15,2013-03-09 10:19:00,
2013-03-09 05:24:00,20.3,17.3,30.22,North,358,0.0,0.0,88,0.00,,,0.00,Wunderground v.1.15,2013-03-09 10:24:00,
2013-03-09 05:29:00,20.2,17.2,30.22,North,358,0.0,0.0,88,0.00,,,0.00,Wunderground v.1.15,2013-03-09 10:29:00,
2013-03-09 05:34:00,20.0,17.0,30.22,North,358,0.0,0.0,88,0.00,,,0.00,Wunderground v.1.15,2013-03-09 10:34:00,
2013-03-09 05:39:00,19.9,16.9,30.22,North,358,0.0,0.0,88,0.00,,,0.00,Wunderground v.1.15,2013-03-09 10:39:00,
2013-03-09 05:44:00,19.7,16.7,30.22,North,358,0.0,0.0,88,0.00,,,0.00,Wunderground v.1.15,2013-03-09 10:44:00,
2013-03-09 05:49:00,19.5,16.5,30.22,North,358,0.0,0.0,88,0.00,,,0.00,Wunderground v.1.15,2013-03-09 10:49:00,
2013-03-09 05:54:00,19.4,16.4,30.22,North,358,0.0,0.0,88,0.00,,,0.00,Wunderground v.1.15,2013-03-09 10:54:00,
2013-03-09 05:59:00,19.4,16.4,30.23,North,358,0.0,0.0,88,0.00,,,0.00,Wunderground v.1.15,2013-03-09 10:59:00,
2013-03-09 06:04:00,19.2,16.2,30.23,North,358,0.0,0.0,88,0.00,,,0.00,Wunderground v.1.15,2013-03-09 11:04:00,
2013-03-09 06:09:00,19.1,16.1,30.23,North,358,0.0,0.0,88,0.00,,,0.00,Wunderground v.1.15,2013-03-09 11:09:00,
2013-03-09 06:15:00,18.9,15.9,30.23,North,358,0.0,0.0,88,0.00,,,0.00,Wunderground v.1.15,2013-03-09 11:15:00,
2013-03-09 06:20:00,18.8,15.8,30.23,North,358,0.0,0.0,88,0.00,,,0.00,Wunderground v.1.15,2013-03-09 11:20:00,
2013-03-09 06:25:00,18.6,15.6,30.23,North,358,0.0,0.0,88,0.00,,,0.00,Wunderground v.1.15,2013-03-09 11:25:00,
2013-03-09 06:30:00,18.6,15.6,30.24,North,358,0.0,0.0,88,0.00,,,0.00,Wunderground v.1.15,2013-03-09 11:30:00,
2013-03-09 06:35:00,18.4,15.4,30.24,North,358,0.0,0.0,88,0.00,,,0.00,Wunderground v.1.15,2013-03-09 11:35:00,
2013-03-09 06:40:00,18.3,15.3,30.24,North,358,0.0,0.0,88,0.00,,,0.00,Wunderground v.1.15,2013-03-09 11:40:00,
2013-03-09 06:45:00,18.3,15.3,30.25,North,358,0.0,0.0,88,0.00,,,0.00,Wunderground v.1.15,2013-03-09 11:45:00,
2013-03-09 06:50:00,18.1,15.1,30.25,North,358,0.0,0.0,88,0.00,,,0.00,Wunderground v.1.15,2013-03-09 11:50:00,
2013-03-09 06:56:00,18.1,15.4,30.25,North,358,0.0,0.0,89,0.00,,,0.00,Wunderground v.1.15,2013-03-09 11:56:00,
2013-03-09 07:01:00,18.1,15.4,30.25,North,358,0.0,0.0,89,0.00,,,0.00,Wunderground v.1.15,2013-03-09 12:01:00,
2013-03-09 07:06:00,18.1,15.4,30.25,North,358,0.0,0.0,89,0.00,,,0.00,Wunderground v.1.15,2013-03-09 12:06:00,
2013-03-09 07:11:00,18.1,15.4,30.25,North,358,0.0,0.0,89,0.00,,,0.00,Wunderground v.1.15,2013-03-09 12:11:00,
2013-03-09 07:16:00,18.1,15.4,30.25,North,358,0.0,0.0,89,0.00,,,0.00,Wunderground v.1.15,2013-03-09 12:16:00,
2013-03-09 07:22:00,18.4,16.0,30.25,North,358,0.0,0.0,90,0.00,,,0.00,Wunderground v.1.15,2013-03-09 12:22:00,
2013-03-09 07:27:00,18.6,16.2,30.25,North,358,0.0,0.0,90,0.00,,,0.00,Wunderground v.1.15,2013-03-09 12:27:00,
2013-03-09 07:32:00,18.8,16.6,30.25,North,358,0.0,0.0,91,0.00,,,0.00,Wunderground v.1.15,2013-03-09 12:32:00,
2013-03-09 07:37:00,19.1,16.9,30.25,North,358,0.0,0.0,91,0.00,,,0.00,Wunderground v.1.15,2013-03-09 12:37:00,
2013-03-09 07:42:00,19.4,17.5,30.25,North,358,0.0,0.0,92,0.00,,,0.00,Wunderground v.1.15,2013-03-09 12:42:00,
2013-03-09 07:47:00,19.7,17.8,30.25,North,358,0.0,0.0,92,0.00,,,0.00,Wunderground v.1.15,2013-03-09 12:47:00,
2013-03-09 07:52:00,20.0,18.1,30.25,North,358,0.0,0.0,92,0.00,,,0.00,Wunderground v.1.15,2013-03-09 12:52:00,
2013-03-09 07:58:00,20.3,18.3,30.25,North,358,0.0,0.0,92,0.00,,,0.00,Wunderground v.1.15,2013-03-09 12:58:00,
2013-03-09 08:03:00,21.0,19.3,30.25,North,358,0.0,0.0,93,0.00,,,0.00,Wunderground v.1.15,2013-03-09 13:03:00,
2013-03-09 08:08:00,21.4,19.9,30.25,North,358,0.0,0.0,94,0.00,,,0.00,Wunderground v.1.15,2013-03-09 13:08:00,
2013-03-09 08:13:00,21.9,20.4,30.25,North,358,0.0,0.0,94,0.00,,,0.00,Wunderground v.1.15,2013-03-09 13:13:00,
2013-03-09 08:18:00,22.7,21.5,30.25,North,358,0.0,0.0,95,0.00,,,0.00,Wunderground v.1.15,2013-03-09 13:18:00,
2013-03-09 08:23:00,23.3,22.1,30.25,North,358,0.0,0.0,95,0.00,,,0.00,Wunderground v.1.15,2013-03-09 13:23:00,
2013-03-09 08:29:00,23.9,22.7,30.25,North,358,0.0,0.0,95,0.00,,,0.00,Wunderground v.1.15,2013-03-09 13:29:00,
2013-03-09 08:34:00,24.5,23.3,30.25,North,358,0.0,0.0,95,0.00,,,0.00,Wunderground v.1.15,2013-03-09 13:34:00,
2013-03-09 08:39:00,25.1,23.9,30.25,North,358,0.0,0.0,95,0.00,,,0.00,Wunderground v.1.15,2013-03-09 13:39:00,
2013-03-09 08:44:00,25.7,24.5,30.25,North,358,0.0,0.0,95,0.00,,,0.00,Wunderground v.1.15,2013-03-09 13:44:00,
2013-03-09 08:49:00,26.4,24.9,30.25,North,358,0.0,0.0,94,0.00,,,0.00,Wunderground v.1.15,2013-03-09 13:49:00,
2013-03-09 08:54:00,27.0,24.7,30.25,North,358,0.0,0.0,91,0.00,,,0.00,Wunderground v.1.15,2013-03-09 13:54:00,
2013-03-09 09:00:00,27.6,24.8,30.25,North,358,0.0,0.0,89,0.00,,,0.00,Wunderground v.1.15,2013-03-09 14:00:00,
2013-03-09 09:05:00,28.2,24.6,30.25,North,358,0.0,0.0,86,0.00,,,0.00,Wunderground v.1.15,2013-03-09 14:05:00,
2013-03-09 09:10:00,30.7,26.7,30.25,North,358,0.0,0.0,85,0.00,,,0.00,Wunderground v.1.15,2013-03-09 14:10:00,
2013-03-09 09:15:00,34.3,23.7,30.24,North,358,0.0,0.0,65,0.00,,,0.00,Wunderground v.1.15,2013-03-09 14:15:00,
2013-03-09 09:20:00,35.8,23.3,30.24,North,358,0.0,0.0,60,0.00,,,0.00,Wunderground v.1.15,2013-03-09 14:20:00,
2013-03-09 09:25:00,36.8,24.2,30.24,North,358,0.0,0.0,60,0.00,,,0.00,Wunderground v.1.15,2013-03-09 14:25:00,
2013-03-09 09:30:00,37.8,25.1,30.24,North,358,0.0,0.0,60,0.00,,,0.00,Wunderground v.1.15,2013-03-09 14:30:00,
2013-03-09 09:35:00,38.5,23.7,30.24,North,358,0.0,0.0,55,0.00,,,0.00,Wunderground v.1.15,2013-03-09 14:35:00,
2013-03-09 09:41:00,38.6,24.2,30.24,North,358,0.0,0.0,56,0.00,,,0.00,Wunderground v.1.15,2013-03-09 14:41:00,
2013-03-09 09:46:00,38.8,23.6,30.24,North,358,0.0,0.0,54,0.00,,,0.00,Wunderground v.1.15,2013-03-09 14:46:00,
2013-03-09 09:51:00,39.9,24.6,30.24,East,86,0.0,1.0,54,0.00,,,0.00,Wunderground v.1.15,2013-03-09 14:51:00,
2013-03-09 09:57:00,40.3,23.1,30.23,East,86,0.0,0.0,50,0.00,,,0.00,Wunderground v.1.15,2013-03-09 14:57:00,
2013-03-09 10:02:00,40.9,23.7,30.23,SSE,153,1.0,1.0,50,0.00,,,0.00,Wunderground v.1.15,2013-03-09 15:02:00,
2013-03-09 10:07:00,41.1,23.9,30.23,SSE,155,0.0,0.0,50,0.00,,,0.01,Wunderground v.1.15,2013-03-09 15:07:00,
2013-03-09 10:12:00,41.6,20.7,30.23,SSE,155,0.0,0.0,43,0.00,,,0.01,Wunderground v.1.15,2013-03-09 15:12:00,
2013-03-09 10:17:00,42.1,22.3,30.23,SSE,153,0.0,0.0,45,0.00,,,0.01,Wunderground v.1.15,2013-03-09 15:17:00,
2013-03-09 10:23:00,42.3,24.0,30.23,SSE,155,1.0,1.0,48,0.00,,,0.01,Wunderground v.1.15,2013-03-09 15:23:00,
2013-03-09 10:28:00,41.9,23.1,30.23,SSE,155,0.0,1.0,47,0.00,,,0.01,Wunderground v.1.15,2013-03-09 15:28:00,
2013-03-09 10:33:00,42.6,23.8,30.23,South,174,1.0,2.0,47,0.00,,,0.01,Wunderground v.1.15,2013-03-09 15:33:00,
2013-03-09 10:38:00,42.9,23.0,30.23,WSW,252,0.0,1.0,45,0.00,,,0.01,Wunderground v.1.15,2013-03-09 15:38:00,
2013-03-09 10:43:00,43.3,22.8,30.23,WSW,251,1.0,2.0,44,0.00,,,0.01,Wunderground v.1.15,2013-03-09 15:43:00,
2013-03-09 10:48:00,43.8,21.6,30.23,WSW,244,0.0,1.0,41,0.00,,,0.01,Wunderground v.1.15,2013-03-09 15:48:00,
2013-03-09 10:53:00,44.5,20.4,30.23,North,357,0.0,2.0,38,0.00,,,0.01,Wunderground v.1.15,2013-03-09 15:53:00,
2013-03-09 10:58:00,44.9,23.7,30.23,WSW,251,0.0,1.0,43,0.00,,,0.01,Wunderground v.1.15,2013-03-09 15:58:00,
2013-03-09 11:03:00,45.4,21.2,30.23,SSW,211,0.0,1.0,38,0.00,,,0.01,Wunderground v.1.15,2013-03-09 16:03:00,
2013-03-09 11:08:00,46.2,20.0,30.23,WNW,286,0.0,2.0,35,0.00,,,0.01,Wunderground v.1.15,2013-03-09 16:08:00,
2013-03-09 11:14:00,46.8,17.0,30.23,WSW,244,0.0,2.0,30,0.00,,,0.01,Wunderground v.1.15,2013-03-09 16:14:00,
2013-03-09 11:19:00,47.3,18.9,30.23,WSW,252,1.0,2.0,32,0.00,,,0.01,Wunderground v.1.15,2013-03-09 16:19:00,
2013-03-09 11:24:00,47.3,14.1,30.23,WNW,303,0.0,6.0,26,0.00,,,0.01,Wunderground v.1.15,2013-03-09 16:24:00,
2013-03-09 11:29:00,48.6,14.3,30.24,North,357,0.0,4.0,25,0.00,,,0.01,Wunderground v.1.15,2013-03-09 16:29:00,
2013-03-09 11:34:00,48.9,17.2,30.24,NW,313,1.0,4.0,28,0.00,,,0.01,Wunderground v.1.15,2013-03-09 16:34:00,
2013-03-09 11:40:00,47.6,20.6,30.24,WNW,303,1.0,2.0,34,0.00,,,0.01,Wunderground v.1.15,2013-03-09 16:40:00,
2013-03-09 11:45:00,47.1,17.2,30.24,WNW,303,2.0,2.0,30,0.00,,,0.01,Wunderground v.1.15,2013-03-09 16:45:00,
2013-03-09 11:50:00,47.7,15.3,30.24,West,272,1.0,4.0,27,0.00,,,0.01,Wunderground v.1.15,2013-03-09 16:50:00,
2013-03-09 11:55:00,47.7,16.1,30.24,West,270,1.0,1.0,28,0.00,,,0.01,Wunderground v.1.15,2013-03-09 16:55:00,
2013-03-09 12:00:00,48.2,18.9,30.23,West,270,0.0,1.0,31,0.00,,,0.01,Wunderground v.1.15,2013-03-09 17:00:00,
2013-03-09 12:05:00,47.6,20.6,30.23,West,266,2.0,2.0,34,0.00,,,0.01,Wunderground v.1.15,2013-03-09 17:05:00,
2013-03-09 12:10:00,47.6,16.1,30.23,WSW,254,1.0,4.0,28,0.00,,,0.01,Wunderground v.1.15,2013-03-09 17:10:00,
2013-03-09 12:15:00,47.9,17.9,30.23,WSW,256,0.0,1.0,30,0.00,,,0.01,Wunderground v.1.15,2013-03-09 17:15:00,
2013-03-09 12:21:00,48.2,18.2,30.23,WSW,242,1.0,2.0,30,0.00,,,0.01,Wunderground v.1.15,2013-03-09 17:21:00,
2013-03-09 12:26:00,48.6,17.7,30.23,WSW,244,0.0,1.0,29,0.00,,,0.01,Wunderground v.1.15,2013-03-09 17:26:00,
2013-03-09 12:31:00,48.3,19.0,30.22,WSW,244,0.0,2.0,31,0.00,,,0.01,Wunderground v.1.15,2013-03-09 17:31:00,
2013-03-09 12:36:00,48.5,16.8,30.22,NW,311,1.0,2.0,28,0.00,,,0.01,Wunderground v.1.15,2013-03-09 17:36:00,
2013-03-09 12:41:00,49.5,16.9,30.22,NW,316,0.0,2.0,27,0.00,,,0.01,Wunderground v.1.15,2013-03-09 17:41:00,
2013-03-09 12:46:00,50.5,15.9,30.22,SE,142,0.0,1.0,25,0.00,,,0.01,Wunderground v.1.15,2013-03-09 17:46:00,
2013-03-09 12:52:00,50.4,19.3,30.22,SE,142,0.0,2.0,29,0.00,,,0.01,Wunderground v.1.15,2013-03-09 17:52:00,
2013-03-09 12:57:00,51.0,16.4,30.21,North,2,0.0,4.0,25,0.00,,,0.01,Wunderground v.1.15,2013-03-09 17:57:00,
2013-03-09 13:02:00,51.6,15.9,30.21,NW,316,0.0,4.0,24,0.00,,,0.01,Wunderground v.1.15,2013-03-09 18:02:00,
2013-03-09 13:07:00,52.5,17.6,30.21,WNW,289,0.0,1.0,25,0.00,,,0.01,Wunderground v.1.15,2013-03-09 18:07:00,
2013-03-09 13:13:00,53.2,19.2,30.21,NNW,334,0.0,2.0,26,0.00,,,0.01,Wunderground v.1.15,2013-03-09 18:13:00,
2013-03-09 13:18:00,52.9,17.0,30.21,NNW,348,1.0,1.0,24,0.00,,,0.01,Wunderground v.1.15,2013-03-09 18:18:00,
2013-03-09 13:23:00,52.5,17.6,30.21,WSW,241,0.0,2.0,25,0.00,,,0.02,Wunderground v.1.15,2013-03-09 18:23:00,
2013-03-09 13:28:00,52.5,17.6,30.20,NNE,12,0.0,1.0,25,0.00,,,0.02,Wunderground v.1.15,2013-03-09 18:28:00,
2013-03-09 13:33:00,51.9,18.0,30.20,NW,304,1.0,2.0,26,0.05,,,0.03,Wunderground v.1.15,2013-03-09 18:33:00,
2013-03-09 13:38:00,52.3,19.3,30.20,West,272,0.0,4.0,27,0.05,,,0.03,Wunderground v.1.15,2013-03-09 18:38:00,
2013-03-09 13:43:00,52.6,17.7,30.20,North,358,0.0,4.0,25,0.05,,,0.03,Wunderground v.1.15,2013-03-09 18:43:00,
2013-03-09 13:49:00,52.0,17.2,30.20,WSW,244,2.0,2.0,25,0.00,,,0.03,Wunderground v.1.15,2013-03-09 18:49:00,
2013-03-09 13:54:00,51.4,16.7,30.20,NW,317,0.0,2.0,25,0.00,,,0.03,Wunderground v.1.15,2013-03-09 18:54:00,
2013-03-09 13:59:00,51.7,15.0,30.20,West,272,1.0,2.0,23,0.00,,,0.03,Wunderground v.1.15,2013-03-09 18:59:00,
2013-03-09 14:04:00,51.3,14.7,30.20,West,263,0.0,2.0,23,0.00,,,0.03,Wunderground v.1.15,2013-03-09 19:04:00,
2013-03-09 14:09:00,52.0,15.3,30.20,NW,306,2.0,2.0,23,0.00,,,0.03,Wunderground v.1.15,2013-03-09 19:09:00,
2013-03-09 14:14:00,52.8,16.9,30.19,NW,318,1.0,2.0,24,0.00,,,0.03,Wunderground v.1.15,2013-03-09 19:14:00,
2013-03-09 14:20:00,52.9,18.0,30.19,WNW,294,1.0,1.0,25,0.00,,,0.03,Wunderground v.1.15,2013-03-09 19:20:00,
2013-03-09 14:25:00,53.1,18.2,30.19,WNW,293,0.0,1.0,25,0.00,,,0.03,Wunderground v.1.15,2013-03-09 19:25:00,
2013-03-09 14:30:00,52.5,16.7,30.19,North,350,2.0,4.0,24,0.00,,,0.03,Wunderground v.1.15,2013-03-09 19:30:00,
2013-03-09 14:35:00,52.9,12.9,30.19,NE,38,2.0,2.0,20,0.00,,,0.03,Wunderground v.1.15,2013-03-09 19:35:00,
2013-03-09 14:40:00,52.6,15.8,30.19,North,352,0.0,4.0,23,0.00,,,0.03,Wunderground v.1.15,2013-03-09 19:40:00,
2013-03-09 14:45:00,52.8,14.9,30.19,NNE,33,2.0,2.0,22,0.00,,,0.03,Wunderground v.1.15,2013-03-09 19:45:00,
2013-03-09 14:50:00,52.6,18.6,30.19,NNE,16,1.0,6.0,26,0.00,,,0.03,Wunderground v.1.15,2013-03-09 19:50:00,
2013-03-09 14:55:00,52.3,16.5,30.19,North,355,2.0,2.0,24,0.00,,,0.03,Wunderground v.1.15,2013-03-09 19:55:00,
2013-03-09 15:00:00,52.8,13.9,30.19,North,359,0.0,2.0,21,0.00,,,0.03,Wunderground v.1.15,2013-03-09 20:00:00,
2013-03-09 15:06:00,53.1,13.0,30.19,North,359,0.0,0.0,20,0.00,,,0.03,Wunderground v.1.15,2013-03-09 20:06:00,
2013-03-09 15:11:00,53.3,13.2,30.20,North,359,0.0,1.0,20,0.00,,,0.03,Wunderground v.1.15,2013-03-09 20:11:00,
2013-03-09 15:16:00,53.1,15.2,30.20,North,2,0.0,0.0,22,0.00,,,0.03,Wunderground v.1.15,2013-03-09 20:16:00,
2013-03-09 15:21:00,52.6,16.8,30.20,North,2,1.0,1.0,24,0.00,,,0.03,Wunderground v.1.15,2013-03-09 20:21:00,
2013-03-09 15:27:00,52.5,14.7,30.20,WSW,258,0.0,2.0,22,0.00,,,0.03,Wunderground v.1.15,2013-03-09 20:27:00,
2013-03-09 15:32:00,52.0,17.2,30.20,North,358,0.0,2.0,25,0.00,,,0.03,Wunderground v.1.15,2013-03-09 20:32:00,
2013-03-09 15:37:00,52.3,17.5,30.20,North,358,0.0,2.0,25,0.00,,,0.03,Wunderground v.1.15,2013-03-09 20:37:00,
2013-03-09 15:42:00,52.2,16.4,30.20,North,358,0.0,2.0,24,0.00,,,0.03,Wunderground v.1.15,2013-03-09 20:42:00,
2013-03-09 15:47:00,52.5,16.7,30.20,WNW,294,1.0,1.0,24,0.00,,,0.03,Wunderground v.1.15,2013-03-09 20:47:00,
2013-03-09 15:52:00,52.2,14.4,30.20,WNW,294,1.0,2.0,22,0.00,,,0.03,Wunderground v.1.15,2013-03-09 20:52:00,
2013-03-09 15:57:00,52.2,15.5,30.21,WNW,294,0.0,1.0,23,0.00,,,0.03,Wunderground v.1.15,2013-03-09 20:57:00,
2013-03-09 16:02:00,52.2,14.4,30.21,NNW,331,0.0,1.0,22,0.00,,,0.03,Wunderground v.1.15,2013-03-09 21:02:00,
2013-03-09 16:08:00,52.3,16.5,30.21,WNW,287,0.0,1.0,24,0.00,,,0.03,Wunderground v.1.15,2013-03-09 21:08:00,
2013-03-09 16:13:00,52.2,16.4,30.21,North,2,1.0,4.0,24,0.00,,,0.03,Wunderground v.1.15,2013-03-09 21:13:00,
2013-03-09 16:18:00,52.0,16.3,30.21,NNE,12,0.0,1.0,24,0.00,,,0.03,Wunderground v.1.15,2013-03-09 21:18:00,
2013-03-09 16:24:00,51.3,17.5,30.21,NNE,12,0.0,1.0,26,0.00,,,0.03,Wunderground v.1.15,2013-03-09 21:24:00,
2013-03-09 16:29:00,51.7,15.0,30.21,WNW,299,0.0,1.0,23,0.00,,,0.03,Wunderground v.1.15,2013-03-09 21:29:00,
2013-03-09 16:34:00,52.0,14.3,30.21,WNW,300,0.0,1.0,22,0.00,,,0.03,Wunderground v.1.15,2013-03-09 21:34:00,
2013-03-09 16:39:00,52.0,14.3,30.21,WNW,300,0.0,0.0,22,0.00,,,0.03,Wunderground v.1.15,2013-03-09 21:39:00,
2013-03-09 16:44:00,51.6,15.0,30.22,WNW,300,0.0,1.0,23,0.00,,,0.03,Wunderground v.1.15,2013-03-09 21:44:00,
2013-03-09 16:50:00,51.4,14.8,30.22,WNW,299,0.0,0.0,23,0.00,,,0.03,Wunderground v.1.15,2013-03-09 21:50:00,
2013-03-09 16:55:00,51.3,14.7,30.22,WNW,299,0.0,0.0,23,0.00,,,0.03,Wunderground v.1.15,2013-03-09 21:55:00,
2013-03-09 17:00:00,50.7,15.2,30.22,WNW,299,0.0,0.0,24,0.00,,,0.03,Wunderground v.1.15,2013-03-09 22:00:00,
2013-03-09 17:05:00,48.8,17.1,30.22,WNW,299,0.0,0.0,28,0.00,,,0.03,Wunderground v.1.15,2013-03-09 22:05:00,
2013-03-09 17:10:00,47.1,17.2,30.22,WNW,299,0.0,0.0,30,0.00,,,0.03,Wunderground v.1.15,2013-03-09 22:10:00,
2013-03-09 17:15:00,46.7,18.4,30.23,WNW,299,0.0,0.0,32,0.00,,,0.03,Wunderground v.1.15,2013-03-09 22:15:00,
2013-03-09 17:20:00,45.1,17.0,30.23,WNW,299,0.0,0.0,32,0.00,,,0.03,Wunderground v.1.15,2013-03-09 22:20:00,
2013-03-09 17:26:00,44.2,16.2,30.23,WNW,299,0.0,0.0,32,0.00,,,0.03,Wunderground v.1.15,2013-03-09 22:26:00,
2013-03-09 17:31:00,44.1,23.0,30.24,WNW,299,0.0,0.0,43,0.00,,,0.03,Wunderground v.1.15,2013-03-09 22:31:00,
2013-03-09 17:36:00,43.3,24.4,30.24,WNW,299,0.0,0.0,47,0.00,,,0.03,Wunderground v.1.15,2013-03-09 22:36:00,
2013-03-09 17:41:00,42.2,24.9,30.24,WNW,299,0.0,0.0,50,0.00,,,0.03,Wunderground v.1.15,2013-03-09 22:41:00,
2013-03-09 17:46:00,40.8,25.9,30.24,WNW,299,0.0,0.0,55,0.00,,,0.03,Wunderground v.1.15,2013-03-09 22:46:00,
2013-03-09 17:51:00,40.2,24.9,30.24,WNW,300,0.0,0.0,54,0.00,,,0.03,Wunderground v.1.15,2013-03-09 22:51:00,
2013-03-09 17:56:00,39.8,23.6,30.26,East,84,2.0,2.0,52,0.00,,,0.03,Wunderground v.1.15,2013-03-09 22:56:00,
2013-03-09 18:01:00,39.5,25.9,30.26,East,84,0.0,2.0,58,0.00,,,0.03,Wunderground v.1.15,2013-03-09 23:01:00,
2013-03-09 18:06:00,39.6,25.2,30.26,ENE,76,0.0,0.0,56,0.00,,,0.03,Wunderground v.1.15,2013-03-09 23:06:00,
2013-03-09 18:12:00,40.8,26.3,30.26,ENE,76,0.0,0.0,56,0.00,,,0.03,Wunderground v.1.15,2013-03-09 23:12:00,
2013-03-09 18:17:00,40.2,24.9,30.26,ENE,76,0.0,0.0,54,0.00,,,0.03,Wunderground v.1.15,2013-03-09 23:17:00,
2013-03-09 18:22:00,39.8,25.4,30.26,ENE,76,0.0,0.0,56,0.00,,,0.03,Wunderground v.1.15,2013-03-09 23:22:00,
2013-03-09 18:27:00,39.5,24.7,30.27,NE,54,0.0,1.0,55,0.00,,,0.03,Wunderground v.1.15,2013-03-09 23:27:00,
2013-03-09 18:32:00,39.8,24.0,30.27,SW,227,0.0,1.0,53,0.00,,,0.03,Wunderground v.1.15,2013-03-09 23:32:00,
2013-03-09 18:38:00,39.5,23.8,30.27,SW,227,0.0,0.0,53,0.00,,,0.03,Wunderground v.1.15,2013-03-09 23:38:00,
2013-03-09 18:43:00,39.6,24.3,30.28,SW,227,0.0,0.0,54,0.00,,,0.03,Wunderground v.1.15,2013-03-09 23:43:00,
2013-03-09 18:48:00,39.5,24.7,30.28,SW,227,0.0,0.0,55,0.00,,,0.03,Wunderground v.1.15,2013-03-09 23:48:00,
2013-03-09 18:53:00,38.8,25.3,30.28,SSW,208,0.0,0.0,58,0.00,,,0.03,Wunderground v.1.15,2013-03-09 23:53:00,
2013-03-09 18:58:00,37.5,25.7,30.29,SSW,208,0.0,0.0,62,0.00,,,0.03,Wunderground v.1.15,2013-03-09 23:58:00,
2013-03-09 19:03:00,37.5,25.7,30.29,SSW,208,0.0,0.0,62,0.00,,,0.03,Wunderground v.1.15,2013-03-10 00:03:00,
2013-03-09 19:08:00,37.6,24.6,30.29,SSW,210,0.0,1.0,59,0.00,,,0.03,Wunderground v.1.15,2013-03-10 00:08:00,
2013-03-09 19:13:00,37.6,25.4,30.29,SSW,210,0.0,1.0,61,0.00,,,0.03,Wunderground v.1.15,2013-03-10 00:13:00,
2013-03-09 19:18:00,37.0,24.8,30.29,SSW,210,0.0,0.0,61,0.00,,,0.03,Wunderground v.1.15,2013-03-10 00:18:00,
2013-03-09 19:24:00,36.3,25.3,30.29,SSW,210,0.0,0.0,64,0.00,,,0.03,Wunderground v.1.15,2013-03-10 00:24:00,
2013-03-09 19:29:00,35.8,24.8,30.30,SSW,210,0.0,0.0,64,0.00,,,0.03,Wunderground v.1.15,2013-03-10 00:29:00,
2013-03-09 19:34:00,35.5,24.9,30.30,SSW,210,0.0,0.0,65,0.00,,,0.03,Wunderground v.1.15,2013-03-10 00:34:00,
2013-03-09 19:39:00,35.5,26.0,30.30,SSW,210,0.0,0.0,68,0.00,,,0.03,Wunderground v.1.15,2013-03-10 00:39:00,
2013-03-09 19:44:00,35.3,25.8,30.30,SSW,210,0.0,0.0,68,0.00,,,0.03,Wunderground v.1.15,2013-03-10 00:44:00,
2013-03-09 19:49:00,35.2,26.0,30.30,SSW,210,0.0,0.0,69,0.00,,,0.03,Wunderground v.1.15,2013-03-10 00:49:00,
2013-03-09 19:54:00,34.4,26.0,30.30,SSW,210,0.0,0.0,71,0.00,,,0.03,Wunderground v.1.15,2013-03-10 00:54:00,
2013-03-09 19:59:00,34.3,26.2,30.31,SSW,210,0.0,0.0,72,0.00,,,0.03,Wunderground v.1.15,2013-03-10 00:59:00,
2013-03-09 20:05:00,34.3,26.2,30.31,SSW,210,0.0,0.0,72,0.00,,,0.03,Wunderground v.1.15,2013-03-10 01:05:00,
2013-03-09 20:10:00,34.0,26.3,30.31,SSW,210,0.0,0.0,73,0.00,,,0.03,Wunderground v.1.15,2013-03-10 01:10:00,
2013-03-09 20:15:00,33.7,25.6,30.31,SSW,210,0.0,0.0,72,0.00,,,0.03,Wunderground v.1.15,2013-03-10 01:15:00,
2013-03-09 20:20:00,33.5,25.8,30.31,SSW,210,0.0,0.0,73,0.00,,,0.03,Wunderground v.1.15,2013-03-10 01:20:00,
2013-03-09 20:25:00,32.8,25.7,30.31,SSW,210,0.0,0.0,75,0.00,,,0.03,Wunderground v.1.15,2013-03-10 01:25:00,
2013-03-09 20:30:00,32.8,26.1,30.32,SSW,210,0.0,0.0,76,0.00,,,0.03,Wunderground v.1.15,2013-03-10 01:30:00,
2013-03-09 20:36:00,31.9,25.2,30.32,SSW,210,0.0,0.0,76,0.00,,,0.03,Wunderground v.1.15,2013-03-10 01:36:00,
2013-03-09 20:41:00,31.8,26.0,30.33,SSW,210,0.0,0.0,79,0.00,,,0.03,Wunderground v.1.15,2013-03-10 01:41:00,
2013-03-09 20:46:00,31.5,25.7,30.33,SSW,210,0.0,0.0,79,0.00,,,0.03,Wunderground v.1.15,2013-03-10 01:46:00,
2013-03-09 20:51:00,31.5,26.0,30.33,SSW,210,0.0,0.0,80,0.00,,,0.03,Wunderground v.1.15,2013-03-10 01:51:00,
2013-03-09 20:57:00,30.7,25.6,30.33,SSW,210,0.0,0.0,81,0.00,,,0.03,Wunderground v.1.15,2013-03-10 01:57:00,
2013-03-09 21:02:00,30.3,25.5,30.33,SSW,210,0.0,0.0,82,0.00,,,0.03,Wunderground v.1.15,2013-03-10 02:02:00,
2013-03-09 21:07:00,30.6,26.3,30.33,SSW,210,0.0,0.0,84,0.00,,,0.03,Wunderground v.1.15,2013-03-10 02:07:00,
2013-03-09 21:12:00,30.1,25.8,30.33,SSW,210,0.0,0.0,84,0.00,,,0.03,Wunderground v.1.15,2013-03-10 02:12:00,
2013-03-09 21:17:00,30.0,25.8,30.33,SSW,210,0.0,0.0,84,0.00,,,0.03,Wunderground v.1.15,2013-03-10 02:17:00,
2013-03-09 21:22:00,29.8,25.6,30.33,SSW,210,0.0,0.0,84,0.00,,,0.03,Wunderground v.1.15,2013-03-10 02:22:00,
2013-03-09 21:27:00,29.5,25.3,30.32,SSW,210,0.0,0.0,84,0.00,,,0.03,Wunderground v.1.15,2013-03-10 02:27:00,
2013-03-09 21:32:00,29.3,25.4,30.32,SSW,210,0.0,0.0,85,0.00,,,0.03,Wunderground v.1.15,2013-03-10 02:32:00,
2013-03-09 21:37:00,29.4,25.4,30.32,SSW,210,0.0,0.0,85,0.00,,,0.03,Wunderground v.1.15,2013-03-10 02:37:00,
2013-03-09 21:42:00,29.4,25.7,30.33,SSW,210,0.0,0.0,86,0.00,,,0.03,Wunderground v.1.15,2013-03-10 02:42:00,
2013-03-09 21:48:00,29.4,25.7,30.33,SSW,210,0.0,0.0,86,0.00,,,0.03,Wunderground v.1.15,2013-03-10 02:48:00,
2013-03-09 21:53:00,29.1,25.4,30.33,SSW,210,0.0,0.0,86,0.00,,,0.03,Wunderground v.1.15,2013-03-10 02:53:00,
2013-03-09 21:58:00,29.0,25.3,30.33,SSW,210,0.0,0.0,86,0.00,,,0.03,Wunderground v.1.15,2013-03-10 02:58:00,
2013-03-09 22:03:00,29.0,25.3,30.33,SSW,210,0.0,0.0,86,0.00,,,0.03,Wunderground v.1.15,2013-03-10 03:03:00,
2013-03-09 22:08:00,28.8,25.1,30.33,SSW,210,0.0,0.0,86,0.00,,,0.03,Wunderground v.1.15,2013-03-10 03:08:00,
2013-03-09 22:14:00,28.7,24.8,30.33,SSW,210,0.0,0.0,85,0.00,,,0.03,Wunderground v.1.15,2013-03-10 03:14:00,
2013-03-09 22:19:00,28.5,24.6,30.33,SSW,210,0.0,0.0,85,0.00,,,0.03,Wunderground v.1.15,2013-03-10 03:19:00,
2013-03-09 22:24:00,28.4,24.5,30.33,SSW,210,0.0,0.0,85,0.00,,,0.03,Wunderground v.1.15,2013-03-10 03:24:00,
2013-03-09 22:29:00,28.2,24.3,30.34,SSW,210,0.0,0.0,85,0.00,,,0.03,Wunderground v.1.15,2013-03-10 03:29:00,
2013-03-09 22:34:00,27.9,24.3,30.34,SSW,210,0.0,0.0,86,0.00,,,0.03,Wunderground v.1.15,2013-03-10 03:34:00,
2013-03-09 22:39:00,27.8,24.4,30.34,SSW,210,0.0,0.0,87,0.00,,,0.03,Wunderground v.1.15,2013-03-10 03:39:00,
2013-03-09 22:45:00,27.8,24.4,30.34,SSW,210,0.0,0.0,87,0.00,,,0.03,Wunderground v.1.15,2013-03-10 03:45:00,
2013-03-09 22:50:00,27.5,24.1,30.34,SSW,210,0.0,0.0,87,0.00,,,0.03,Wunderground v.1.15,2013-03-10 03:50:00,
2013-03-09 22:55:00,27.5,24.4,30.34,SSW,210,0.0,0.0,88,0.00,,,0.03,Wunderground v.1.15,2013-03-10 03:55:00,
2013-03-09 23:01:00,27.3,24.2,30.34,SSW,210,0.0,0.0,88,0.00,,,0.03,Wunderground v.1.15,2013-03-10 04:01:00,
2013-03-09 23:06:00,27.2,24.1,30.34,SSW,210,0.0,0.0,88,0.00,,,0.03,Wunderground v.1.15,2013-03-10 04:06:00,
2013-03-09 23:11:00,27.0,23.9,30.34,SSW,210,0.0,0.0,88,0.00,,,0.03,Wunderground v.1.15,2013-03-10 04:11:00,
2013-03-09 23:16:00,27.0,23.9,30.34,SSW,210,0.0,0.0,88,0.00,,,0.03,Wunderground v.1.15,2013-03-10 04:16:00,
2013-03-09 23:22:00,26.9,23.8,30.34,SSW,210,0.0,0.0,88,0.00,,,0.03,Wunderground v.1.15,2013-03-10 04:22:00,
2013-03-09 23:27:00,26.9,23.8,30.35,SSW,210,0.0,0.0,88,0.00,,,0.03,Wunderground v.1.15,2013-03-10 04:27:00,
2013-03-09 23:32:00,26.9,23.8,30.35,SSW,210,0.0,0.0,88,0.00,,,0.03,Wunderground v.1.15,2013-03-10 04:32:00,
2013-03-09 23:37:00,26.9,23.8,30.35,SSW,210,0.0,0.0,88,0.00,,,0.03,Wunderground v.1.15,2013-03-10 04:37:00,
2013-03-09 23:42:00,26.9,23.8,30.35,SSW,210,0.0,0.0,88,0.00,,,0.03,Wunderground v.1.15,2013-03-10 04:42:00,
2013-03-09 23:47:00,26.7,23.6,30.35,SSW,210,0.0,0.0,88,0.00,,,0.03,Wunderground v.1.15,2013-03-10 04:47:00,
2013-03-09 23:52:00,26.7,23.6,30.35,SSW,210,0.0,0.0,88,0.00,,,0.03,Wunderground v.1.15,2013-03-10 04:52:00,
2013-03-09 23:59:00,26.6,23.3,30.35,SSW,210,0.0,0.0,87,0.00,,,0.00,Wunderground v.1.15,2013-03-10 04:59:00,